Terminal Aerodrome Forecast
Issued by NWS Buffalo, NY

Home | Current Version | Previous Version | Text Only | Print | Product List | Glossary On
Versions: 1 2 3 4 5 6 7 8 9 10 11 12 13 14 15 16 17 18 19 20 21 22 23 24 25 26 27 28 29 30 31
000
FTUS41 KBUF 022044 AAA
TAFART
TAF AMD
KART 022044Z 0221/0318 25008KT P6SM SCT200
     FM030000 VRB03KT P6SM SCT040
     FM030300 00000KT 4SM BR SCT040
     FM030800 00000KT P6SM BKN045
     FM031600 32004KT P6SM BKN060=

USA.gov is the U.S. government's official web portal to all federal, state and local government web resources and services.